createdAt,value
2019-06-07T00:00:31.933Z,8.30
2019-06-07T00:02:41.681Z,8.23
2019-06-07T00:05:12.711Z,8.88
2019-06-07T00:07:40.701Z,8.13
2019-06-07T00:10:15.455Z,8.43
2019-06-07T00:12:39.951Z,8.58
2019-06-07T00:15:11.625Z,8.53
2019-06-07T00:17:39.170Z,8.73
2019-06-07T00:20:13.142Z,8.43
2019-06-07T00:22:39.228Z,9.28
2019-06-07T00:25:12.096Z,9.03
2019-06-07T00:27:38.788Z,9.35
2019-06-07T00:30:32.567Z,11.00
2019-06-07T00:32:40.300Z,11.22
2019-06-07T00:35:09.262Z,11.30
2019-06-07T00:37:38.116Z,11.93
2019-06-07T00:40:17.628Z,12.28
2019-06-07T00:42:38.052Z,12.73
2019-06-07T00:45:07.314Z,12.45
2019-06-07T00:47:36.005Z,12.68
2019-06-07T00:50:06.776Z,14.05
2019-06-07T00:53:13.925Z,16.17
2019-06-07T00:55:07.448Z,14.68
2019-06-07T00:57:36.203Z,14.98
2019-06-07T01:00:07.492Z,15.25
2019-06-07T01:02:36.270Z,15.05
2019-06-07T01:05:08.854Z,15.05
2019-06-07T01:07:40.758Z,15.28
2019-06-07T01:10:13.852Z,16.37
2019-06-07T01:12:42.802Z,16.25
2019-06-07T01:15:15.784Z,15.70
2019-06-07T01:18:32.599Z,16.70
2019-06-07T01:20:14.144Z,16.02
2019-06-07T01:22:43.094Z,18.55
2019-06-07T01:25:11.833Z,18.35
2019-06-07T01:27:40.607Z,16.27
2019-06-07T01:30:11.132Z,16.48
2019-06-07T01:32:39.833Z,16.87
2019-06-07T01:35:09.793Z,18.12
2019-06-07T01:37:38.546Z,19.32
2019-06-07T01:40:11.654Z,18.77
2019-06-07T01:42:40.357Z,18.40
2019-06-07T01:45:11.505Z,18.23
2019-06-07T01:47:40.250Z,20.48
2019-06-07T01:50:10.297Z,18.82
2019-06-07T01:52:39.079Z,18.80
2019-06-07T01:55:09.229Z,19.27
2019-06-07T01:57:47.741Z,19.98
2019-06-07T02:00:09.902Z,18.32
2019-06-07T02:02:38.769Z,19.12
2019-06-07T02:05:07.917Z,19.73
2019-06-07T02:07:37.003Z,19.85
2019-06-07T02:10:09.294Z,21.00
2019-06-07T02:12:43.246Z,22.87
2019-06-07T02:15:09.443Z,23.95
2019-06-07T02:17:38.643Z,24.72
2019-06-07T02:20:12.605Z,23.62
2019-06-07T02:22:41.216Z,25.35
2019-06-07T02:25:37.387Z,25.68
2019-06-07T02:27:40.278Z,25.00
2019-06-07T02:30:37.022Z,28.60
2019-06-07T02:32:40.322Z,28.10
2019-06-07T02:35:11.547Z,28.40
2019-06-07T02:37:40.156Z,29.52
2019-06-07T02:40:09.416Z,27.85
2019-06-07T02:42:42.231Z,28.60
2019-06-07T02:45:10.757Z,29.32
2019-06-07T02:47:40.344Z,30.20
2019-06-07T02:50:13.800Z,30.55
2019-06-07T02:52:42.637Z,28.75
2019-06-07T02:55:12.229Z,28.65
2019-06-07T02:57:42.584Z,27.25
2019-06-07T03:00:52.761Z,28.30
2019-06-07T03:02:44.085Z,26.57
2019-06-07T03:05:12.899Z,25.62
2019-06-07T03:07:45.179Z,25.97
2019-06-07T03:10:13.117Z,25.32
2019-06-07T03:12:45.241Z,25.12
2019-06-07T03:15:32.248Z,28.15
2019-06-07T03:18:01.474Z,28.30
2019-06-07T03:23:01.897Z,24.82
2019-06-07T03:25:36.960Z,27.32
2019-06-07T03:28:04.386Z,32.00
2019-06-07T03:30:48.798Z,30.30
2019-06-07T03:33:03.284Z,29.52
2019-06-07T03:35:34.632Z,30.45
2019-06-07T03:38:02.635Z,29.55
2019-06-07T03:40:32.305Z,32.00
2019-06-07T03:43:02.013Z,32.10
2019-06-07T03:45:32.357Z,31.40
2019-06-07T03:48:00.929Z,29.52
2019-06-07T03:50:33.443Z,32.10
2019-06-07T03:52:59.903Z,30.37
2019-06-07T03:55:30.396Z,30.88
2019-06-07T03:58:30.911Z,29.92
2019-06-07T04:00:32.495Z,29.85
2019-06-07T04:02:59.342Z,30.08
2019-06-07T04:05:28.755Z,29.15
2019-06-07T04:07:58.497Z,30.35
2019-06-07T04:10:44.900Z,27.62
2019-06-07T04:12:57.368Z,29.30
2019-06-07T04:15:26.002Z,27.45
2019-06-07T04:18:01.906Z,28.07
2019-06-07T04:20:25.077Z,25.65
2019-06-07T04:22:53.695Z,26.00
2019-06-07T04:25:22.470Z,25.25
2019-06-07T04:27:51.441Z,25.08
2019-06-07T04:30:41.504Z,23.92
2019-06-07T04:33:10.167Z,23.52
2019-06-07T04:35:43.077Z,23.05
2019-06-07T04:38:12.719Z,21.17
2019-06-07T04:40:42.917Z,19.60
2019-06-07T04:43:12.942Z,19.10
2019-06-07T04:45:50.337Z,18.37
2019-06-07T04:48:12.222Z,16.50
2019-06-07T04:50:43.692Z,16.05
2019-06-07T04:53:11.409Z,15.78
2019-06-07T04:55:41.749Z,14.58
2019-06-07T04:58:10.398Z,14.03
2019-06-07T05:00:52.395Z,12.82
2019-06-07T05:03:09.553Z,12.73
2019-06-07T05:05:41.381Z,11.65
2019-06-07T05:08:27.080Z,12.05
2019-06-07T05:10:41.303Z,12.10
2019-06-07T05:13:09.134Z,11.22
2019-06-07T05:15:40.209Z,11.30
2019-06-07T05:18:08.112Z,10.88
2019-06-07T05:20:38.543Z,11.25
2019-06-07T05:23:07.193Z,10.53
2019-06-07T05:25:38.462Z,10.95
2019-06-07T05:28:06.360Z,10.30
2019-06-07T05:33:12.056Z,9.20
2019-06-07T05:35:43.235Z,9.18
2019-06-07T05:38:11.220Z,10.25
2019-06-07T05:40:43.945Z,9.40
2019-06-07T05:43:25.801Z,8.28
2019-06-07T05:45:54.588Z,9.23
2019-06-07T05:48:23.306Z,9.00
2019-06-07T05:50:56.840Z,8.45
2019-06-07T05:53:22.544Z,8.50
2019-06-07T05:55:51.165Z,9.20
2019-06-07T05:58:19.913Z,8.43
2019-06-07T06:00:48.805Z,8.25
2019-06-07T06:03:17.494Z,8.03
2019-06-07T06:05:54.460Z,8.83
2019-06-07T06:08:16.494Z,7.95
2019-06-07T06:10:48.513Z,7.60
2019-06-07T06:13:15.594Z,7.70
2019-06-07T06:15:56.302Z,8.35
2019-06-07T06:18:14.739Z,9.03
2019-06-07T06:21:04.696Z,8.43
2019-06-07T06:23:13.843Z,9.08
2019-06-07T06:25:50.161Z,8.13
2019-06-07T06:28:13.308Z,6.60
2019-06-07T06:30:46.037Z,8.13
2019-06-07T06:33:30.458Z,9.13
2019-06-07T06:35:48.402Z,8.93
2019-06-07T06:38:14.463Z,9.50
2019-06-07T06:40:48.425Z,9.83
2019-06-07T06:43:13.787Z,8.43
2019-06-07T06:45:42.950Z,9.05
2019-06-07T06:48:12.916Z,8.58
2019-06-07T06:50:43.602Z,8.75
2019-06-07T06:53:11.766Z,9.80
2019-06-07T06:55:41.497Z,9.73
2019-06-07T06:58:10.241Z,9.80
2019-06-07T07:01:05.319Z,8.88
2019-06-07T07:03:57.316Z,8.65
2019-06-07T07:05:54.959Z,9.58
2019-06-07T07:08:26.073Z,8.13
2019-06-07T07:10:55.243Z,9.80
2019-06-07T07:13:24.198Z,9.30
2019-06-07T07:15:58.064Z,9.83
2019-06-07T07:18:23.308Z,9.78
2019-06-07T07:20:56.896Z,9.75
2019-06-07T07:23:22.376Z,10.38
2019-06-07T07:25:58.078Z,9.60
2019-06-07T07:28:21.410Z,9.78
2019-06-07T07:30:55.375Z,10.63
2019-06-07T07:33:23.753Z,10.00
2019-06-07T07:36:15.287Z,8.78
2019-06-07T07:38:23.898Z,9.73
2019-06-07T07:41:06.097Z,9.58
2019-06-07T07:43:23.102Z,8.83
2019-06-07T07:45:59.182Z,9.43
2019-06-07T07:48:22.065Z,10.25
2019-06-07T07:50:54.566Z,10.38
2019-06-07T07:53:21.474Z,8.73
2019-06-07T07:55:53.822Z,10.53
2019-06-07T07:58:20.752Z,9.65
2019-06-07T08:00:54.908Z,10.48
2019-06-07T08:03:19.925Z,10.53
2019-06-07T08:05:49.190Z,11.45
2019-06-07T08:08:19.170Z,11.12
2019-06-07T08:10:51.466Z,10.40
2019-06-07T08:13:25.881Z,10.93
2019-06-07T08:15:53.308Z,11.12
2019-06-07T08:18:18.861Z,11.05
2019-06-07T08:21:08.748Z,10.90
2019-06-07T08:23:17.964Z,10.78
2019-06-07T08:25:46.802Z,10.13
2019-06-07T08:28:15.572Z,11.50
2019-06-07T08:30:51.236Z,11.05
2019-06-07T08:33:25.839Z,10.85
2019-06-07T08:38:29.794Z,9.45
2019-06-07T08:40:53.634Z,10.03
2019-06-07T08:43:21.107Z,9.48
2019-06-07T08:45:51.257Z,9.80
2019-06-07T08:48:28.064Z,9.95
2019-06-07T08:50:52.957Z,9.65
2019-06-07T08:53:20.252Z,9.00
2019-06-07T08:55:48.917Z,7.70
2019-06-07T08:58:17.587Z,7.40
2019-06-07T09:00:47.662Z,6.08
2019-06-07T09:03:16.549Z,6.20
2019-06-07T09:05:45.262Z,6.22
2019-06-07T09:08:29.247Z,6.20
2019-06-07T09:10:45.133Z,5.47
2019-06-07T09:13:13.808Z,5.97
2019-06-07T09:15:42.495Z,5.78
2019-06-07T09:20:45.230Z,5.37
2019-06-07T09:23:17.302Z,4.78
2019-06-07T09:25:56.685Z,4.35
2019-06-07T09:28:23.151Z,3.98
2019-06-07T09:30:51.756Z,3.90
2019-06-07T09:33:20.497Z,3.37
2019-06-07T09:35:53.406Z,3.58
2019-06-07T09:38:26.687Z,3.15
2019-06-07T09:40:53.602Z,3.00
2019-06-07T09:45:52.625Z,3.77
2019-06-07T09:49:09.292Z,3.22
2019-06-07T09:50:52.951Z,3.05
2019-06-07T09:53:23.307Z,3.42
2019-06-07T09:55:51.983Z,3.80
2019-06-07T10:00:50.996Z,3.20
2019-06-07T10:03:22.400Z,3.70
2019-06-07T10:05:50.035Z,3.30
2019-06-07T10:09:26.204Z,3.27
2019-06-07T10:10:49.010Z,3.70
2019-06-07T10:13:17.770Z,3.20
2019-06-07T10:15:46.576Z,2.70
2019-06-07T10:18:15.315Z,3.00
2019-06-07T10:20:44.139Z,2.62
2019-06-07T10:23:12.788Z,3.42
2019-06-07T10:25:41.536Z,2.33
2019-06-07T10:28:10.501Z,2.92
2019-06-07T10:30:39.438Z,2.80
2019-06-07T10:33:08.608Z,2.55
2019-06-07T10:35:37.586Z,2.98
2019-06-07T10:38:06.733Z,2.37
2019-06-07T10:40:35.376Z,2.98
2019-06-07T10:43:05.048Z,3.00
2019-06-07T10:45:34.513Z,2.72
2019-06-07T10:48:03.586Z,2.70
2019-06-07T10:50:32.437Z,2.75
2019-06-07T10:53:02.283Z,2.85
2019-06-07T10:55:31.052Z,2.67
2019-06-07T10:57:59.677Z,2.75
2019-06-07T11:00:29.631Z,2.75
2019-06-07T11:02:58.557Z,2.77
2019-06-07T11:05:27.307Z,2.85
2019-06-07T11:07:55.982Z,2.80
2019-06-07T11:10:24.751Z,2.42
2019-06-07T11:12:53.382Z,2.40
2019-06-07T11:15:22.122Z,2.37
2019-06-07T11:17:50.884Z,3.20
2019-06-07T11:20:19.908Z,2.22
2019-06-07T11:22:48.522Z,2.58
2019-06-07T11:25:18.748Z,2.45
2019-06-07T11:27:47.333Z,2.85
2019-06-07T11:30:16.331Z,2.20
2019-06-07T11:32:44.946Z,2.20
2019-06-07T11:35:15.603Z,2.02
2019-06-07T11:37:44.297Z,2.50
2019-06-07T11:40:31.981Z,2.25
2019-06-07T11:42:44.177Z,2.70
2019-06-07T11:45:15.228Z,2.20
2019-06-07T11:47:43.543Z,2.87
2019-06-07T11:50:13.728Z,2.67
2019-06-07T11:52:46.103Z,2.45
2019-06-07T11:55:15.732Z,2.50
2019-06-07T11:57:44.504Z,3.12
2019-06-07T12:00:16.351Z,3.08
2019-06-07T12:02:49.791Z,2.58
2019-06-07T12:05:20.344Z,2.33
2019-06-07T12:07:49.129Z,2.37
2019-06-07T12:10:22.253Z,2.80
2019-06-07T12:12:48.469Z,2.50
2019-06-07T12:15:19.293Z,2.37
2019-06-07T12:17:48.102Z,2.05
2019-06-07T12:20:19.546Z,2.20
2019-06-07T12:23:00.527Z,2.22
2019-06-07T12:25:29.228Z,2.37
2019-06-07T12:27:57.986Z,2.30
2019-06-07T12:30:28.096Z,2.67
2019-06-07T12:32:56.944Z,3.20
2019-06-07T12:35:25.656Z,2.33
2019-06-07T12:37:54.462Z,2.20
2019-06-07T12:40:30.154Z,2.17
2019-06-07T12:42:53.597Z,2.35
2019-06-07T12:45:42.830Z,1.80
2019-06-07T12:47:52.838Z,2.77
2019-06-07T12:50:23.910Z,2.30
2019-06-07T12:52:53.301Z,2.87
2019-06-07T12:55:22.777Z,2.30
2019-06-07T12:57:52.376Z,2.15
2019-06-07T13:00:22.483Z,2.17
2019-06-07T13:02:51.380Z,2.47
2019-06-07T13:05:21.622Z,1.80
2019-06-07T13:07:50.797Z,2.30
2019-06-07T13:10:22.149Z,2.58
2019-06-07T13:12:50.539Z,2.33
2019-06-07T13:15:21.860Z,2.05
2019-06-07T13:17:49.614Z,1.90
2019-06-07T13:20:20.296Z,1.90
2019-06-07T13:22:50.773Z,2.33
2019-06-07T13:25:21.283Z,2.25
2019-06-07T13:27:51.343Z,2.35
2019-06-07T13:30:21.061Z,2.60
2019-06-07T13:32:49.890Z,2.05
2019-06-07T13:35:20.101Z,2.25
2019-06-07T13:37:49.082Z,1.80
2019-06-07T13:40:19.662Z,2.12
2019-06-07T13:42:48.297Z,1.60
2019-06-07T13:45:19.909Z,1.90
2019-06-07T13:47:48.902Z,2.02
2019-06-07T13:50:19.488Z,1.60
2019-06-07T13:52:48.581Z,1.82
2019-06-07T13:55:18.037Z,1.80
2019-06-07T13:57:46.664Z,1.90
2019-06-07T14:00:18.884Z,1.70
2019-06-07T14:02:48.150Z,1.87
2019-06-07T14:05:16.899Z,2.10
2019-06-07T14:07:45.710Z,1.92
2019-06-07T14:10:14.408Z,1.77
2019-06-07T14:12:43.158Z,1.95
2019-06-07T14:15:12.183Z,1.80
2019-06-07T14:17:40.884Z,1.85
2019-06-07T14:20:10.474Z,1.98
2019-06-07T14:22:39.619Z,1.67
2019-06-07T14:25:09.524Z,1.90
2019-06-07T14:27:38.366Z,2.02
2019-06-07T14:30:09.085Z,3.20
2019-06-07T14:32:37.940Z,2.02
2019-06-07T14:35:08.724Z,13.38
2019-06-07T14:37:37.488Z,2.30
2019-06-07T14:40:08.923Z,1.90
2019-06-07T14:42:37.695Z,2.05
2019-06-07T14:45:07.540Z,1.80
2019-06-07T14:47:44.599Z,1.62
2019-06-07T14:50:14.146Z,2.00
2019-06-07T14:52:42.780Z,2.00
2019-06-07T14:55:12.000Z,1.85
2019-06-07T14:57:40.778Z,2.20
2019-06-07T15:00:12.472Z,1.65
2019-06-07T15:02:41.272Z,2.25
2019-06-07T15:05:11.045Z,1.90
2019-06-07T15:07:40.585Z,1.67
2019-06-07T15:10:10.100Z,1.98
2019-06-07T15:12:40.022Z,1.82
2019-06-07T15:15:09.933Z,1.60
2019-06-07T15:17:39.217Z,1.82
2019-06-07T15:20:08.514Z,1.52
2019-06-07T15:22:38.739Z,2.00
2019-06-07T15:25:08.404Z,1.77
2019-06-07T15:27:37.649Z,1.92
2019-06-07T15:30:10.397Z,2.17
2019-06-07T15:32:39.618Z,1.98
2019-06-07T15:35:09.285Z,1.87
2019-06-07T15:37:39.292Z,1.70
2019-06-07T15:40:10.116Z,1.80
2019-06-07T15:42:49.982Z,2.02
2019-06-07T15:45:09.872Z,2.00
2019-06-07T15:47:40.376Z,1.70
2019-06-07T15:50:09.992Z,2.15
2019-06-07T15:52:40.544Z,2.00
2019-06-07T15:55:10.551Z,2.12
2019-06-07T15:57:39.801Z,2.30
2019-06-07T16:00:14.439Z,2.10
2019-06-07T16:02:43.139Z,2.00
2019-06-07T16:05:11.981Z,2.08
2019-06-07T16:07:40.782Z,2.33
2019-06-07T16:10:10.602Z,2.12
2019-06-07T16:12:39.350Z,2.10
2019-06-07T16:15:09.357Z,2.75
2019-06-07T16:17:39.247Z,3.10
2019-06-07T16:20:08.774Z,3.22
2019-06-07T16:22:37.681Z,2.40
2019-06-07T16:25:08.217Z,2.42
2019-06-07T16:27:37.338Z,2.20
2019-06-07T16:30:12.093Z,2.33
2019-06-07T16:32:41.785Z,15.25
2019-06-07T16:35:12.484Z,3.00
2019-06-07T16:37:42.786Z,2.58
2019-06-07T16:40:14.079Z,2.15
2019-06-07T16:42:43.024Z,2.45
2019-06-07T16:45:15.170Z,2.40
2019-06-07T16:47:47.155Z,2.67
2019-06-07T16:50:14.609Z,2.50
2019-06-07T16:52:44.226Z,2.75
2019-06-07T16:55:13.764Z,2.70
2019-06-07T16:57:42.946Z,2.62
2019-06-07T17:00:12.818Z,2.80
2019-06-07T17:02:42.235Z,2.60
2019-06-07T17:05:11.562Z,2.50
2019-06-07T17:07:40.526Z,3.77
2019-06-07T17:10:12.671Z,3.40
2019-06-07T17:12:42.680Z,3.17
2019-06-07T17:15:13.346Z,2.90
2019-06-07T17:17:42.967Z,2.85
2019-06-07T17:20:13.553Z,3.75
2019-06-07T17:22:43.904Z,6.30
2019-06-07T17:25:13.018Z,2.95
2019-06-07T17:27:42.082Z,3.20
2019-06-07T17:30:12.017Z,3.33
2019-06-07T17:32:50.810Z,3.75
2019-06-07T17:35:11.428Z,3.22
2019-06-07T17:37:41.785Z,3.10
2019-06-07T17:40:10.882Z,3.08
2019-06-07T17:42:40.597Z,2.95
2019-06-07T17:45:10.306Z,3.40
2019-06-07T17:47:39.120Z,4.42
2019-06-07T17:50:09.295Z,5.72
2019-06-07T17:52:38.013Z,5.40
2019-06-07T17:55:08.268Z,4.47
2019-06-07T17:57:36.926Z,4.97
2019-06-07T18:00:27.676Z,4.92
2019-06-07T18:02:38.301Z,4.35
2019-06-07T18:05:07.869Z,4.12
2019-06-07T18:07:36.853Z,4.05
2019-06-07T18:10:07.647Z,4.22
2019-06-07T18:12:36.339Z,3.37
2019-06-07T18:15:10.748Z,3.47
2019-06-07T18:17:39.486Z,3.98
2019-06-07T18:20:10.587Z,4.08
2019-06-07T18:22:39.256Z,3.50
2019-06-07T18:25:08.599Z,3.72
2019-06-07T18:27:37.205Z,3.95
2019-06-07T18:30:11.542Z,4.22
2019-06-07T18:32:39.519Z,3.65
2019-06-07T18:35:08.282Z,4.15
2019-06-07T18:37:36.985Z,3.85
2019-06-07T18:40:08.470Z,3.10
2019-06-07T18:42:37.151Z,2.95
2019-06-07T18:45:09.728Z,2.95
2019-06-07T18:47:38.777Z,2.83
2019-06-07T18:50:08.299Z,3.10
2019-06-07T18:52:38.780Z,3.05
2019-06-07T18:55:09.424Z,3.33
2019-06-07T18:57:38.136Z,3.25
2019-06-07T19:00:09.858Z,3.00
2019-06-07T19:02:39.250Z,3.25
2019-06-07T19:05:09.483Z,2.35
2019-06-07T19:07:38.289Z,3.33
2019-06-07T19:10:13.994Z,3.10
2019-06-07T19:15:13.331Z,2.47
2019-06-07T19:17:42.080Z,3.12
2019-06-07T19:20:11.854Z,2.40
2019-06-07T19:22:40.620Z,2.77
2019-06-07T19:25:11.364Z,2.92
2019-06-07T19:28:10.661Z,2.65
2019-06-07T19:30:39.363Z,2.40
2019-06-07T19:33:08.126Z,2.67
2019-06-07T19:35:38.964Z,2.85
2019-06-07T19:38:07.730Z,2.98
2019-06-07T19:40:36.560Z,2.72
2019-06-07T19:43:11.571Z,2.70
2019-06-07T19:45:40.437Z,2.30
2019-06-07T19:48:12.106Z,2.47
2019-06-07T19:50:40.743Z,2.12
2019-06-07T19:53:09.654Z,2.40
2019-06-07T19:55:38.401Z,2.12
2019-06-07T19:58:07.172Z,2.45
2019-06-07T20:00:35.929Z,2.40
2019-06-07T20:03:04.721Z,2.20
2019-06-07T20:05:34.111Z,2.95
2019-06-07T20:08:03.072Z,2.77
2019-06-07T20:10:31.858Z,2.52
2019-06-07T20:13:00.924Z,2.80
2019-06-07T20:15:29.866Z,3.67
2019-06-07T20:17:59.228Z,2.80
2019-06-07T20:20:30.090Z,3.05
2019-06-07T20:23:01.001Z,3.30
2019-06-07T20:25:29.854Z,3.05
2019-06-07T20:27:59.640Z,2.90
2019-06-07T20:30:28.532Z,2.80
2019-06-07T20:32:57.676Z,2.62
2019-06-07T20:35:26.478Z,3.10
2019-06-07T20:37:55.290Z,2.40
2019-06-07T20:40:24.957Z,2.45
2019-06-07T20:42:53.714Z,2.87
2019-06-07T20:45:32.990Z,2.20
2019-06-07T20:47:52.804Z,2.50
2019-06-07T20:50:21.510Z,2.35
2019-06-07T20:53:01.133Z,2.00
2019-06-07T20:55:29.712Z,2.05
2019-06-07T20:57:59.100Z,2.05
2019-06-07T21:00:27.986Z,1.77
2019-06-07T21:02:56.701Z,1.90
2019-06-07T21:05:25.383Z,2.00
2019-06-07T21:07:54.167Z,2.05
2019-06-07T21:10:22.856Z,1.75
2019-06-07T21:12:51.495Z,2.15
2019-06-07T21:15:20.286Z,1.98
2019-06-07T21:17:49.033Z,1.85
2019-06-07T21:20:17.713Z,1.67
2019-06-07T21:22:46.571Z,1.90
2019-06-07T21:25:15.172Z,1.82
2019-06-07T21:27:43.835Z,1.70
2019-06-07T21:30:12.819Z,1.50
2019-06-07T21:32:41.517Z,1.92
2019-06-07T21:35:12.175Z,1.60
2019-06-07T21:37:41.234Z,1.80
2019-06-07T21:40:10.479Z,2.17
2019-06-07T21:42:39.565Z,1.32
2019-06-07T21:45:20.311Z,1.27
2019-06-07T21:47:48.966Z,1.40
2019-06-07T21:50:17.969Z,1.40
2019-06-07T21:52:46.615Z,1.27
2019-06-07T21:55:15.975Z,1.30
2019-06-07T21:57:44.650Z,1.52
2019-06-07T22:00:17.675Z,1.02
2019-06-07T22:02:46.590Z,1.10
2019-06-07T22:05:15.456Z,1.20
2019-06-07T22:07:44.197Z,1.20
2019-06-07T22:10:14.544Z,1.30
2019-06-07T22:12:43.163Z,1.10
2019-06-07T22:15:29.062Z,0.90
2019-06-07T22:17:42.643Z,1.05
2019-06-07T22:20:12.726Z,1.07
2019-06-07T22:22:41.599Z,1.40
2019-06-07T22:25:11.074Z,1.20
2019-06-07T22:27:39.982Z,1.10
2019-06-07T22:30:10.469Z,1.17
2019-06-07T22:32:39.306Z,1.67
2019-06-07T22:35:08.948Z,1.07
2019-06-07T22:37:38.077Z,1.30
2019-06-07T22:40:08.573Z,1.20
2019-06-07T22:42:38.000Z,1.27
2019-06-07T22:45:08.226Z,1.00
2019-06-07T22:47:49.049Z,1.10
2019-06-07T22:50:19.427Z,1.05
2019-06-07T22:52:50.305Z,1.17
2019-06-07T22:55:19.069Z,1.15
2019-06-07T22:58:06.085Z,1.52
2019-06-07T23:00:36.702Z,0.98
2019-06-07T23:03:05.703Z,1.40
2019-06-07T23:05:35.213Z,1.22
2019-06-07T23:08:04.257Z,1.20
2019-06-07T23:10:32.942Z,1.20
2019-06-07T23:13:01.661Z,1.42
2019-06-07T23:15:30.652Z,1.30
2019-06-07T23:18:02.325Z,1.25
2019-06-07T23:20:31.008Z,1.00
2019-06-07T23:22:59.637Z,1.17
2019-06-07T23:25:28.352Z,1.50
2019-06-07T23:27:57.089Z,1.30
2019-06-07T23:30:25.893Z,1.02
2019-06-07T23:32:54.548Z,1.25
2019-06-07T23:35:23.160Z,1.02
2019-06-07T23:37:51.845Z,1.17
2019-06-07T23:40:21.565Z,1.20
2019-06-07T23:42:50.365Z,1.00
2019-06-07T23:45:19.546Z,1.27
2019-06-07T23:47:48.331Z,1.15
2019-06-07T23:50:17.768Z,1.17
2019-06-07T23:52:46.410Z,0.95
2019-06-07T23:55:15.875Z,1.40
2019-06-07T23:57:44.737Z,1.52
